CYKZ/YKZ METAR and TAF weather

Enter ICAO airport designator
Station Type Date Time Source
CYKZ METAR 2018/07/21 13:00 UTC NOAA

CYKZ 211300Z 12014G19KT 100V160 15SM FEW050 SCT100 BKN260 23/17 A2992 RMK CF1AC3CI4 CF TR SLP130 DENSITY ALT 1800FT


Station Type Date Time Source
CYKZ Decoded METAR 2018/07/21 13:00 UTC NOAA

Toronto Buttonville, Canada (CYKZ) 43-52N 079-22W
Jul 21, 2018 - 09:00 AM EDT / 2018.07.21 1300 UTC
Wind: from the ESE (120 degrees) at 16 MPH (14 KT) gusting to 22 MPH (19 KT) (direction variable):0
Visibility: 15 mile(s):0
Sky conditions: mostly cloudy
Temperature: 73 F (23 C)
Dew Point: 62 F (17 C)
Relative Humidity: 68%
Pressure (altimeter): 29.92 in. Hg (1013 hPa)
ob: CYKZ 211300Z 12014G19KT 100V160 15SM FEW050 SCT100 BKN260 23/17 A2992 RMK CF1AC3CI4 CF TR SLP130 DENSITY ALT 1800FT
cycle: 13

Station Type Date Time Source
CYKZ TAF 2018/07/21 12:39 UTC NOAA

TAF CYKZ 211138Z 2112/2124 11008G18KT P6SM FEW050 BKN090
FM211400 12012G22KT P6SM BKN050
RMK NXT FCST BY 211800Z


Example: see airport list